Last 24 Hours

UH Manoa Atmospheric Sciences

15 Minute Data | Pacific/Honolulu
as of 11/27/20 12:24 PM HST
Station Date Time Temp (°F) RH (%) Dew Pt (°F) Wind Spd (mph) Wind Dir (°) Wind Gust (mph) Latest Rain (In) Solar Rad (W/m2) Heat Index (°F) Barometric Pressure (inHg) Daily Rain (In) Daily Min Temp (°F) Daily Max Temp (°F) Daily Max Wind (mph)
UH Manoa Atmospheric Sciences 11/27/20 1215 80.4 58 64.5 3.5 NE | 36 10.8 0.00 682 81.7 30.05 0.03 73.9 81.2 26.8
UH Manoa Atmospheric Sciences 11/27/20 1200 80.2 59 64.6 4.6 NE | 42 10.7 0.00 706 81.6 30.06 0.03 73.9 81.2 26.8
UH Manoa Atmospheric Sciences 11/27/20 1145 79.8 60 64.6 5.0 NNE | 16 13.0 0.00 843 80.4 30.06 0.03 73.9 81.2 26.8
UH Manoa Atmospheric Sciences 11/27/20 1130 79.6 59 63.8 5.3 NNW | 340 22.1 0.00 469 79.7 30.07 0.03 73.9 81.2 26.8
UH Manoa Atmospheric Sciences 11/27/20 1115 80.1 57 63.6 5.6 ENE | 60 12.3 0.00 760 81.0 30.08 0.03 73.9 81.2 26.8
UH Manoa Atmospheric Sciences 11/27/20 1100 79.7 57 63.0 5.0 N | 11 14.1 0.00 680 80.2 30.09 0.03 73.9 80.8 26.8
UH Manoa Atmospheric Sciences 11/27/20 1045 79.9 59 64.2 3.7 WSW | 244 7.8 0.00 718 80.7 30.10 0.03 73.9 80.8 26.8
UH Manoa Atmospheric Sciences 11/27/20 1030 80.0 59 64.5 3.6 N | 353 11.9 0.00 739 81.0 30.10 0.03 73.9 80.8 26.8
UH Manoa Atmospheric Sciences 11/27/20 1015 80.0 59 64.3 3.9 WSW | 253 9.9 0.00 552 80.9 30.10 0.03 73.9 80.6 26.8
UH Manoa Atmospheric Sciences 11/27/20 1000 79.3 59 63.8 3.3 NW | 326 13.1 0.00 684 79.8 30.10 0.03 73.9 80.4 26.8
UH Manoa Atmospheric Sciences 11/27/20 0945 78.3 61 63.8 6.8 NNE | 20 16.8 0.00 446 78.3 30.10 0.03 73.9 79.2 26.8
UH Manoa Atmospheric Sciences 11/27/20 0930 78.5 62 64.4 4.6 SW | 234 11.5 0.00 470 78.5 30.10 0.03 73.9 79.2 26.8
UH Manoa Atmospheric Sciences 11/27/20 0915 78.4 60 63.3 4.9 NE | 52 16.3 0.00 400 78.4 30.09 0.03 73.9 79.1 26.8
UH Manoa Atmospheric Sciences 11/27/20 0900 77.8 61 63.3 2.9 ESE | 104 8.6 0.00 286 77.8 30.10 0.03 73.9 78.2 26.8
UH Manoa Atmospheric Sciences 11/27/20 0845 77.5 62 63.6 6.5 NNE | 29 18.8 0.00 318 77.5 30.09 0.03 73.9 78.2 26.8
UH Manoa Atmospheric Sciences 11/27/20 0830 77.2 64 64.3 3.4 NE | 34 13.9 0.00 273 77.2 30.09 0.03 73.9 78.2 26.8
UH Manoa Atmospheric Sciences 11/27/20 0815 76.7 66 64.6 3.0 E | 92 7.8 0.00 199 76.7 30.09 0.03 73.9 77.0 26.8
UH Manoa Atmospheric Sciences 11/27/20 0800 76.3 67 64.5 5.4 ENE | 63 13.6 0.00 106 76.3 30.09 0.03 73.9 76.7 26.8
UH Manoa Atmospheric Sciences 11/27/20 0745 76.2 67 64.4 5.1 ENE | 72 12.2 0.00 87 76.2 30.08 0.03 73.9 76.7 26.8
UH Manoa Atmospheric Sciences 11/27/20 0730 76.0 67 64.2 6.2 ENE | 65 15.5 0.00 51 76.0 30.08 0.03 73.9 76.7 26.8
UH Manoa Atmospheric Sciences 11/27/20 0715 75.9 67 64.2 6.1 ENE | 74 17.1 0.00 25 75.9 30.08 0.03 73.9 76.7 26.8
UH Manoa Atmospheric Sciences 11/27/20 0700 75.8 67 63.9 6.7 ENE | 62 17.7 0.00 5 75.8 30.07 0.03 73.9 76.7 26.8
UH Manoa Atmospheric Sciences 11/27/20 0645 75.7 66 63.8 6.2 ENE | 57 15.5 0.00 0 75.7 30.07 0.03 73.9 76.7 26.8
UH Manoa Atmospheric Sciences 11/27/20 0630 75.8 67 63.8 5.0 ENE | 63 18.6 0.00 0 75.8 30.07 0.03 73.9 76.7 26.8
UH Manoa Atmospheric Sciences 11/27/20 0615 75.8 66 63.7 5.8 ENE | 58 14.7 0.00 0 75.8 30.07 0.03 73.9 76.7 26.8
UH Manoa Atmospheric Sciences 11/27/20 0600 75.9 64 62.9 9.2 ENE | 64 23.4 0.00 0 75.9 30.07 0.03 73.9 76.7 26.8
UH Manoa Atmospheric Sciences 11/27/20 0545 75.8 66 63.8 9.6 NE | 50 19.4 0.00 0 75.8 30.07 0.03 73.9 76.7 26.8
UH Manoa Atmospheric Sciences 11/27/20 0530 76.0 66 64.1 7.1 NE | 56 17.1 0.00 0 76.0 30.06 0.03 73.9 76.7 26.8
UH Manoa Atmospheric Sciences 11/27/20 0515 76.2 66 63.8 8.9 NE | 41 20.0 0.00 0 76.2 30.06 0.03 73.9 76.7 26.8
UH Manoa Atmospheric Sciences 11/27/20 0500 76.2 66 64.3 8.1 ENE | 59 20.3 0.00 0 76.2 30.06 0.03 73.9 76.7 26.8
UH Manoa Atmospheric Sciences 11/27/20 0445 76.3 67 64.5 8.2 ENE | 62 22.4 0.00 0 76.3 30.06 0.03 73.9 76.7 26.8
UH Manoa Atmospheric Sciences 11/27/20 0430 76.3 66 64.1 9.0 NE | 54 20.6 0.00 0 76.3 30.07 0.03 73.9 76.7 26.8
UH Manoa Atmospheric Sciences 11/27/20 0415 76.0 67 64.4 9.8 ENE | 65 22.9 0.00 0 76.0 30.07 0.03 73.9 76.7 26.8
UH Manoa Atmospheric Sciences 11/27/20 0400 76.2 68 64.8 6.8 NE | 52 17.1 0.00 0 76.2 30.08 0.03 73.9 76.7 26.8
UH Manoa Atmospheric Sciences 11/27/20 0345 76.4 66 64.3 7.7 NE | 54 18.0 0.00 0 76.4 30.08 0.03 73.9 76.7 26.8
UH Manoa Atmospheric Sciences 11/27/20 0330 76.2 67 64.5 6.9 NE | 54 17.0 0.00 0 76.2 30.08 0.03 73.9 76.7 26.8
UH Manoa Atmospheric Sciences 11/27/20 0315 76.2 68 65.0 9.8 ENE | 59 19.6 0.00 0 76.2 30.08 0.03 73.9 76.7 26.8
UH Manoa Atmospheric Sciences 11/27/20 0300 76.2 69 65.2 7.2 NE | 54 23.2 0.00 0 76.2 30.09 0.03 73.9 76.7 26.8
UH Manoa Atmospheric Sciences 11/27/20 0245 75.7 71 65.6 9.9 NE | 48 20.7 0.00 0 75.7 30.09 0.03 73.9 76.7 26.8
UH Manoa Atmospheric Sciences 11/27/20 0230 75.4 72 65.7 10.9 NE | 51 22.1 0.00 0 75.4 30.09 0.03 73.9 76.7 26.8
UH Manoa Atmospheric Sciences 11/27/20 0215 74.9 73 65.7 11.2 NE | 47 20.3 0.00 0 74.9 30.09 0.03 73.9 76.7 26.8
UH Manoa Atmospheric Sciences 11/27/20 0200 74.5 74 65.8 9.5 NE | 47 20.3 0.00 0 74.5 30.10 0.03 73.9 76.7 26.8
UH Manoa Atmospheric Sciences 11/27/20 0145 74.3 76 66.2 9.1 NE | 52 19.2 0.00 0 74.3 30.11 0.03 73.9 76.7 26.8
UH Manoa Atmospheric Sciences 11/27/20 0130 75.3 72 65.6 6.1 ENE | 59 13.2 0.01 0 75.3 30.11 0.03 73.9 76.7 26.8
UH Manoa Atmospheric Sciences 11/27/20 0115 74.9 73 65.6 12.1 NE | 42 26.8 0.00 0 74.9 30.11 0.02 73.9 76.7 26.8
UH Manoa Atmospheric Sciences 11/27/20 0100 74.6 75 66.0 7.9 ENE | 57 16.3 0.00 0 74.6 30.12 0.02 73.9 76.7 17.2
UH Manoa Atmospheric Sciences 11/27/20 0045 74.7 76 66.6 6.9 NE | 55 17.2 0.00 0 74.7 30.12 0.02 73.9 76.7 17.2
UH Manoa Atmospheric Sciences 11/27/20 0030 74.3 77 66.9 7.3 NE | 53 16.5 0.01 0 74.3 30.12 0.02 73.9 76.7 16.5
UH Manoa Atmospheric Sciences 11/27/20 0015 76.4 70 65.8 7.1 NE | 53 14.3 0.01 0 76.4 30.12 0.01 75.4 76.7 14.3
UH Manoa Atmospheric Sciences 11/27/20 0000 76.0 70 65.7 8.1 NE | 55 21.8 0.00 0 76.0 30.12 0.00 75.1 80.7 25.2
UH Manoa Atmospheric Sciences 11/26/20 2345 75.5 72 65.9 6.5 NE | 38 14.8 0.00 0 75.5 30.13 0.00 75.1 80.7 25.2
UH Manoa Atmospheric Sciences 11/26/20 2330 76.6 70 66.0 5.8 NE | 50 11.4 0.00 0 76.6 30.13 0.00 75.5 80.7 25.2
UH Manoa Atmospheric Sciences 11/26/20 2315 77.0 69 66.2 6.4 ENE | 58 13.9 0.00 0 77.0 30.13 0.00 75.5 80.7 25.2
UH Manoa Atmospheric Sciences 11/26/20 2300 77.6 66 65.2 7.8 NE | 39 24.0 0.00 0 77.6 30.12 0.00 75.5 80.7 25.2
UH Manoa Atmospheric Sciences 11/26/20 2245 77.6 66 65.6 6.1 NE | 55 16.1 0.00 0 77.6 30.13 0.00 75.5 80.7 25.2
UH Manoa Atmospheric Sciences 11/26/20 2230 77.5 67 65.8 7.8 NE | 55 25.2 0.00 0 77.5 30.13 0.00 75.5 80.7 25.2
UH Manoa Atmospheric Sciences 11/26/20 2215 77.5 67 65.6 7.1 ENE | 65 20.3 0.00 0 77.5 30.12 0.00 75.5 80.7 24.1
UH Manoa Atmospheric Sciences 11/26/20 2200 77.5 67 65.8 10.1 NE | 49 19.6 0.00 0 77.5 30.12 0.00 75.5 80.7 24.1
UH Manoa Atmospheric Sciences 11/26/20 2145 77.5 67 65.7 8.7 ENE | 57 17.6 0.00 0 77.5 30.13 0.00 75.5 80.7 24.1
UH Manoa Atmospheric Sciences 11/26/20 2130 77.6 66 65.6 7.3 ENE | 64 19.4 0.00 0 77.6 30.13 0.00 75.5 80.7 24.1
UH Manoa Atmospheric Sciences 11/26/20 2115 77.6 67 65.8 8.0 NE | 55 15.9 0.00 0 77.6 30.12 0.00 75.5 80.7 24.1
UH Manoa Atmospheric Sciences 11/26/20 2100 77.6 67 65.9 6.2 ENE | 57 12.2 0.00 0 77.6 30.12 0.00 75.5 80.7 24.1
UH Manoa Atmospheric Sciences 11/26/20 2045 77.6 67 65.7 7.8 ENE | 66 17.4 0.00 0 77.6 30.12 0.00 75.5 80.7 24.1
UH Manoa Atmospheric Sciences 11/26/20 2030 77.6 66 65.5 9.1 NE | 56 20.4 0.00 0 77.6 30.12 0.00 75.5 80.7 24.1
UH Manoa Atmospheric Sciences 11/26/20 2015 77.4 67 65.6 8.6 NE | 55 18.2 0.00 0 77.4 30.11 0.00 75.5 80.7 24.1
UH Manoa Atmospheric Sciences 11/26/20 2000 77.5 68 65.9 10.0 NE | 55 20.6 0.00 0 77.5 30.11 0.00 75.5 80.7 24.1
UH Manoa Atmospheric Sciences 11/26/20 1945 77.6 68 66.1 5.6 NE | 51 13.3 0.00 0 77.6 30.11 0.00 75.5 80.7 24.1
UH Manoa Atmospheric Sciences 11/26/20 1930 77.5 68 66.0 7.9 NE | 46 14.6 0.00 0 77.5 30.10 0.00 75.5 80.7 24.1
UH Manoa Atmospheric Sciences 11/26/20 1915 77.6 67 65.9 9.2 NE | 48 24.1 0.00 0 77.6 30.10 0.00 75.5 80.7 24.1
UH Manoa Atmospheric Sciences 11/26/20 1900 77.6 69 66.8 8.1 ENE | 61 14.3 0.00 0 77.6 30.10 0.00 75.5 80.7 23.6
UH Manoa Atmospheric Sciences 11/26/20 1845 77.8 68 66.3 5.6 ENE | 64 12.0 0.00 0 77.8 30.09 0.00 75.5 80.7 23.6
UH Manoa Atmospheric Sciences 11/26/20 1830 77.4 69 66.4 5.3 ENE | 69 14.3 0.00 0 77.4 30.09 0.00 75.5 80.7 23.6
UH Manoa Atmospheric Sciences 11/26/20 1815 77.7 67 65.7 5.5 ENE | 62 10.1 0.00 0 77.7 30.08 0.00 75.5 80.7 23.6
UH Manoa Atmospheric Sciences 11/26/20 1800 77.8 66 65.5 8.0 NE | 52 19.4 0.00 0 77.8 30.08 0.00 75.5 80.7 23.6
UH Manoa Atmospheric Sciences 11/26/20 1745 78.1 66 65.8 7.1 ENE | 58 17.7 0.00 23 78.1 30.08 0.00 75.5 80.7 23.6
UH Manoa Atmospheric Sciences 11/26/20 1730 78.4 65 65.8 6.5 NE | 50 12.3 0.00 56 78.4 30.07 0.00 75.5 80.7 23.6
UH Manoa Atmospheric Sciences 11/26/20 1715 78.4 65 65.7 9.0 ENE | 61 19.2 0.00 120 78.4 30.07 0.00 75.5 80.7 23.6
UH Manoa Atmospheric Sciences 11/26/20 1700 78.5 65 65.9 8.8 ENE | 70 16.8 0.00 185 78.5 30.06 0.00 75.5 80.7 23.6
UH Manoa Atmospheric Sciences 11/26/20 1645 78.9 65 66.0 6.1 ENE | 57 15.4 0.00 188 78.9 30.06 0.00 75.5 80.7 23.6
UH Manoa Atmospheric Sciences 11/26/20 1630 79.1 65 66.3 8.1 NE | 51 18.3 0.00 162 79.1 30.06 0.00 75.5 80.7 23.6
UH Manoa Atmospheric Sciences 11/26/20 1615 79.3 65 66.6 8.4 NE | 51 16.2 0.00 294 79.3 30.05 0.00 75.5 80.7 23.6
UH Manoa Atmospheric Sciences 11/26/20 1600 79.1 66 67.0 7.8 NE | 51 15.2 0.00 196 79.1 30.05 0.00 75.5 80.7 23.6
UH Manoa Atmospheric Sciences 11/26/20 1545 78.8 67 67.0 7.9 NE | 48 16.2 0.00 181 78.8 30.05 0.00 75.5 80.7 23.6
UH Manoa Atmospheric Sciences 11/26/20 1530 78.5 69 67.6 7.2 NE | 55 14.8 0.00 158 78.5 30.05 0.00 75.5 80.7 23.6
UH Manoa Atmospheric Sciences 11/26/20 1515 79.4 67 67.4 9.3 NE | 37 17.0 0.00 509 79.6 30.05 0.00 75.5 80.7 23.6
UH Manoa Atmospheric Sciences 11/26/20 1500 79.4 65 66.8 10.4 NE | 35 22.3 0.00 488 79.4 30.05 0.00 75.5 80.7 23.6
UH Manoa Atmospheric Sciences 11/26/20 1445 79.4 65 66.6 11.7 NE | 40 23.6 0.00 462 79.4 30.04 0.00 75.5 80.7 23.6
UH Manoa Atmospheric Sciences 11/26/20 1430 79.9 65 66.9 10.5 NE | 50 23.6 0.00 403 80.7 30.04 0.00 75.5 80.7 23.6
UH Manoa Atmospheric Sciences 11/26/20 1415 79.6 64 66.5 11.5 NE | 42 19.7 0.00 711 79.6 30.04 0.00 75.5 80.7 23.5
UH Manoa Atmospheric Sciences 11/26/20 1400 79.8 64 66.5 11.1 NE | 40 22.3 0.00 761 80.0 30.05 0.00 75.5 80.7 23.5
UH Manoa Atmospheric Sciences 11/26/20 1345 79.8 65 67.1 10.5 NE | 36 20.6 0.00 849 80.5 30.05 0.00 75.5 80.7 23.5
UH Manoa Atmospheric Sciences 11/26/20 1330 79.4 67 67.5 8.8 NE | 38 22.0 0.00 954 79.7 30.06 0.00 75.5 80.7 23.5
UH Manoa Atmospheric Sciences 11/26/20 1315 78.9 69 67.8 8.6 NE | 44 14.8 0.00 732 78.9 30.07 0.00 75.5 80.7 23.5
UH Manoa Atmospheric Sciences 11/26/20 1300 78.8 69 67.7 9.9 NE | 39 23.5 0.00 455 78.8 30.07 0.00 75.5 80.7 23.5
UH Manoa Atmospheric Sciences 11/26/20 1245 78.6 70 68.0 8.4 NE | 47 17.3 0.00 806 78.6 30.08 0.00 75.5 80.7 19.6
UH Manoa Atmospheric Sciences 11/26/20 1230 77.7 73 68.2 8.3 NE | 49 12.7 0.00 397 77.7 30.09 0.00 75.5 80.7 19.6
UH Manoa Atmospheric Sciences 11/26/20 1215 77.5 78 69.9 4.8 ENE | 59 13.4 0.00 677 77.5 30.10 0.00 75.5 80.7 19.6
Max     80.4 78 69.9 12.1 - 26.8 0.01 954 81.7 30.13 0.03 75.5 81.2 26.8
Avg     77.5 67 65.5 7.4 - 17.1 0.00 199 77.6 30.09 - - - -
Min     74.3 57 62.9 2.9 - 7.8 0.00 0 74.3 30.04 0.00 73.9 76.7 14.3